Time;durP1;ratioP1;P1;durP2;ratioP2;P2;SDS_P1;SDS_P2;PMS_P1;PMS_P2;Temp;Humidity;BMP_temperature;BMP_pressure;BME280_temperature;BME280_humidity;BME280_pressure;Samples;Min_cycle;Max_cycle;Signal;HPM_P1;HPM_P2
2022/05/01 00:01:43;;;;;;;0.43;0.43;;;;;;;3.86;31.92;98145.19;5073077;28;20056;-63
2022/05/01 00:04:09;;;;;;;0.52;0.30;;;;;;;3.91;32.03;98150.00;5072798;28;20044;-64
2022/05/01 00:06:35;;;;;;;0.73;0.73;;;;;;;3.96;31.85;98135.78;5073116;28;20118;-63
2022/05/01 00:09:01;;;;;;;0.65;0.55;;;;;;;3.98;31.87;98133.72;5073128;28;20051;-63
2022/05/01 00:11:28;;;;;;;0.30;0.30;;;;;;;3.99;31.99;98127.22;5072894;28;20118;-64
2022/05/01 00:13:54;;;;;;;0.30;0.30;;;;;;;3.95;32.09;98124.09;5073144;28;20044;-64
2022/05/01 00:16:20;;;;;;;0.40;0.40;;;;;;;3.95;32.26;98120.56;5072888;28;20040;-64
2022/05/01 00:18:46;;;;;;;2.40;0.57;;;;;;;3.94;32.06;98119.69;5072806;28;20131;-64
2022/05/01 00:21:12;;;;;;;0.20;0.20;;;;;;;4.03;32.24;98117.59;5072972;28;20127;-65
2022/05/01 00:23:38;;;;;;;0.40;0.40;;;;;;;4.06;32.08;98100.88;5072989;28;20110;-65
2022/05/01 00:26:06;;;;;;;0.30;0.30;;;;;;;4.05;32.20;98099.25;5072711;28;20040;-63
2022/05/01 00:28:33;;;;;;;4.55;0.47;;;;;;;4.07;32.05;98097.13;5072495;28;20048;-63
2022/05/01 00:30:59;;;;;;;0.30;0.30;;;;;;;4.11;32.01;98095.66;5072806;28;20403;-62
2022/05/01 00:36:27;;;;;;;0.20;0.20;;;;;;;4.13;32.19;98096.28;5072797;28;20043;-63
2022/05/01 00:38:56;;;;;;;0.30;0.30;;;;;;;4.19;32.21;98094.59;5072582;28;20044;-62
2022/05/01 00:41:23;;;;;;;0.38;0.38;;;;;;;4.25;32.11;98096.47;5072352;28;20036;-63
2022/05/01 00:44:10;;;;;;;0.20;0.20;;;;;;;4.34;32.25;98091.66;5072706;28;20041;-63
2022/05/01 00:46:38;;;;;;;0.35;0.35;;;;;;;4.37;32.23;98075.78;5072277;28;20094;-63
2022/05/01 00:49:08;;;;;;;0.52;0.52;;;;;;;4.41;32.22;98078.88;5072114;28;20507;-63
2022/05/01 00:51:53;;;;;;;0.47;0.47;;;;;;;4.42;32.13;98075.13;5072270;28;20047;-63
2022/05/01 00:54:22;;;;;;;0.20;0.20;;;;;;;4.46;32.25;98075.53;5072495;28;20052;-65
2022/05/01 00:56:50;;;;;;;0.38;0.38;;;;;;;4.51;32.17;98070.28;5072290;28;20123;-63
2022/05/01 00:59:17;;;;;;;0.55;0.40;;;;;;;4.59;32.09;98066.50;5071941;28;20072;-64
2022/05/01 01:01:45;;;;;;;1.65;0.55;;;;;;;4.66;32.03;98064.59;5072120;28;20049;-63
2022/05/01 01:04:11;;;;;;;0.20;0.20;;;;;;;4.74;32.03;98069.78;5071498;28;20498;-63
2022/05/01 01:06:41;;;;;;;0.20;0.20;;;;;;;4.80;32.18;98049.03;5072077;28;20036;-63
2022/05/01 01:09:08;;;;;;;0.40;0.40;;;;;;;4.81;32.05;98042.56;5072080;28;20049;-63
2022/05/01 01:11:34;;;;;;;0.20;0.20;;;;;;;4.83;32.21;98041.28;5072186;28;20051;-64
2022/05/01 01:14:00;;;;;;;0.35;0.32;;;;;;;4.86;32.31;98032.69;5071954;28;20036;-64
2022/05/01 01:16:26;;;;;;;0.20;0.20;;;;;;;4.76;32.30;98024.16;5071841;28;20044;-63
2022/05/01 01:18:53;;;;;;;1.15;0.38;;;;;;;4.61;32.76;98024.44;5071858;28;20098;-64
2022/05/01 01:21:19;;;;;;;0.73;0.73;;;;;;;4.55;32.69;98023.44;5072119;28;20037;-65
2022/05/01 01:23:45;;;;;;;0.57;0.43;;;;;;;4.63;32.74;98014.19;5072126;28;20063;-63
2022/05/01 01:26:13;;;;;;;0.43;0.43;;;;;;;4.69;32.66;98013.31;5071870;28;20098;-62
2022/05/01 01:28:41;;;;;;;1.00;0.50;;;;;;;4.72;32.72;98012.06;5072001;28;20060;-62
2022/05/01 01:33:59;;;;;;;0.43;0.43;;;;;;;4.94;32.49;98009.84;5071649;28;20170;-63
2022/05/01 01:36:28;;;;;;;0.30;0.30;;;;;;;5.01;32.23;98002.47;5071742;28;20060;-64
2022/05/01 01:38:55;;;;;;;0.68;0.68;;;;;;;5.08;32.26;97997.81;5071625;28;20037;-63
2022/05/01 01:41:24;;;;;;;0.30;0.30;;;;;;;5.17;32.29;97995.69;5071652;28;20036;-63
2022/05/01 01:43:51;;;;;;;0.30;0.30;;;;;;;5.16;32.30;97988.56;5071683;28;20041;-63
2022/05/01 01:46:17;;;;;;;5.15;0.50;;;;;;;5.05;32.42;97983.81;5054139;28;20052;-62
2022/05/01 01:48:45;;;;;;;0.28;0.28;;;;;;;4.93;32.71;97974.69;5071725;28;20147;-63
2022/05/01 01:51:11;;;;;;;0.20;0.20;;;;;;;4.86;32.91;97970.13;5071513;28;20127;-64
2022/05/01 01:53:37;;;;;;;0.22;0.22;;;;;;;4.82;32.81;97966.19;5053588;28;20047;-64
2022/05/01 01:56:04;;;;;;;0.20;0.20;;;;;;;4.81;32.90;97950.91;5072238;28;20122;-64
2022/05/01 01:58:30;;;;;;;0.98;0.88;;;;;;;4.81;33.06;97947.38;5071570;28;20044;-65
2022/05/01 02:00:59;;;;;;;0.22;0.22;;;;;;;4.88;32.97;97948.16;5071644;28;20076;-63
2022/05/01 02:03:26;;;;;;;0.68;0.50;;;;;;;4.96;32.55;97957.94;5070926;28;20044;-63
2022/05/01 02:05:53;;;;;;;0.60;0.60;;;;;;;5.01;32.83;97964.38;5071620;28;20036;-64
2022/05/01 02:08:19;;;;;;;0.20;0.20;;;;;;;4.96;32.96;97969.66;5071446;28;20055;-64
2022/05/01 02:10:46;;;;;;;0.30;0.30;;;;;;;4.99;32.77;97969.22;5071432;28;20055;-63
2022/05/01 02:13:13;;;;;;;2.75;0.60;;;;;;;5.09;32.75;97960.56;5071863;28;20051;-67
2022/05/01 02:15:39;;;;;;;0.30;0.30;;;;;;;5.04;32.97;97952.22;5053470;28;20049;-63
2022/05/01 02:18:06;;;;;;;0.30;0.30;;;;;;;5.01;32.91;97969.00;5071208;28;20048;-64
2022/05/01 02:23:19;;;;;;;0.40;0.40;;;;;;;4.85;33.32;97954.03;5071679;28;20036;-65
2022/05/01 02:25:45;;;;;;;0.30;0.30;;;;;;;4.86;33.37;97944.84;5071116;28;20098;-62
2022/05/01 02:28:11;;;;;;;0.40;0.40;;;;;;;4.87;33.44;97943.75;5071358;28;20445;-63
2022/05/01 02:30:38;;;;;;;0.40;0.40;;;;;;;4.87;33.30;97939.16;5071454;28;20079;-64
2022/05/01 02:33:06;;;;;;;0.40;0.40;;;;;;;4.95;33.29;97929.06;5052852;28;20554;-62
2022/05/01 02:35:32;;;;;;;0.65;0.65;;;;;;;5.11;33.28;97927.69;5071229;28;20127;-64
2022/05/01 02:37:59;;;;;;;0.73;0.60;;;;;;;5.22;33.06;97919.63;5071201;28;20052;-63
2022/05/01 02:40:25;;;;;;;0.40;0.40;;;;;;;5.34;33.02;97921.63;5071413;28;20032;-63
2022/05/01 02:42:52;;;;;;;1.02;0.80;;;;;;;5.51;32.85;97913.75;5071358;28;20044;-62
2022/05/01 02:45:18;;;;;;;0.80;0.80;;;;;;;5.60;32.85;97910.50;5073614;28;20044;-63
2022/05/01 02:47:44;;;;;;;1.27;1.08;;;;;;;5.76;32.89;97909.06;5074769;28;20070;-63
2022/05/01 02:50:10;;;;;;;1.38;1.27;;;;;;;5.94;32.53;97908.22;5074788;28;20072;-63
2022/05/01 02:52:36;;;;;;;1.02;1.02;;;;;;;6.17;32.56;97905.91;5074529;28;20044;-65
2022/05/01 02:55:01;;;;;;;1.52;1.42;;;;;;;6.39;32.10;97898.06;5074598;28;20464;-63
2022/05/01 02:57:27;;;;;;;1.15;1.10;;;;;;;6.54;32.10;97903.16;5074841;28;20127;-64
2022/05/01 02:59:53;;;;;;;4.10;1.23;;;;;;;6.60;32.19;97902.22;5074445;28;20036;-65
2022/05/01 03:02:19;;;;;;;4.55;1.17;;;;;;;6.66;32.07;97891.19;5074066;28;20099;-64
2022/05/01 03:04:45;;;;;;;2.40;1.60;;;;;;;6.71;32.16;97898.66;5073866;28;20048;-64
2022/05/01 03:07:12;;;;;;;3.22;1.35;;;;;;;6.86;31.97;97887.34;5074219;28;20048;-63
2022/05/01 03:09:38;;;;;;;1.77;1.67;;;;;;;7.07;32.00;97888.69;5072523;28;20110;-65
2022/05/01 03:12:05;;;;;;;1.83;1.60;;;;;;;7.27;31.73;97880.16;5073605;28;20162;-64
2022/05/01 03:14:31;;;;;;;3.63;2.20;;;;;;;7.39;31.75;97887.53;5073536;28;20045;-63
2022/05/01 03:16:57;;;;;;;4.50;3.00;;;;;;;7.51;31.92;97874.72;5073935;28;20149;-64
2022/05/01 03:22:16;;;;;;;5.65;2.85;;;;;;;7.52;31.82;97870.91;5074272;28;20473;-64
2022/05/01 03:24:42;;;;;;;7.25;2.72;;;;;;;7.46;31.93;97861.75;5073944;28;20049;-67
2022/05/01 03:27:09;;;;;;;6.82;2.42;;;;;;;7.46;32.10;97850.81;5073911;28;20048;-62
2022/05/01 03:29:36;;;;;;;7.30;3.38;;;;;;;7.55;32.04;97859.50;5073822;28;20041;-64
2022/05/01 03:32:43;;;;;;;2.47;2.17;;;;;;;7.99;31.40;97859.88;5073059;28;20462;-63
2022/05/01 03:39:12;;;;;;;4.63;4.15;;;;;;;9.23;30.22;97857.56;5049393;28;20059;-61
2022/05/01 03:41:57;;;;;;;;;;;;;;;10.20;29.14;97861.88;5061620;28;20136;-62
2022/05/01 03:55:14;;;;;;;8.32;3.10;;;;;;;11.50;28.72;97836.22;5058676;28;20055;-65
2022/05/01 03:58:20;;;;;;;3.92;1.35;;;;;;;11.15;29.62;97834.06;5063159;28;20044;-66
2022/05/01 04:01:26;;;;;;;4.60;2.78;;;;;;;11.05;29.90;97835.59;5067292;28;20036;-64
2022/05/01 04:04:14;;;;;;;;;;;;;;;10.96;29.85;97834.44;5071549;28;20048;-66
2022/05/01 04:07:20;;;;;;;8.73;3.28;;;;;;;10.61;30.29;97830.25;5070279;28;19920;-66
2022/05/01 04:10:05;;;;;;;;;;;;;;;10.39;30.71;97834.97;5070684;28;20495;-66
2022/05/01 04:13:20;;;;;;;4.75;3.22;;;;;;;10.46;30.63;97830.94;5071744;28;19939;-65
2022/05/01 04:16:25;;;;;;;5.95;3.25;;;;;;;10.66;30.44;97811.13;5070831;28;20051;-65
2022/05/01 04:26:17;;;;;;;2.70;2.45;;;;;;;11.35;29.87;97814.97;5064007;28;20051;-64
2022/05/01 04:29:39;;;;;;;5.95;3.67;;;;;;;11.36;29.93;97808.38;5066711;28;20487;-64
2022/05/01 04:32:44;;;;;;;11.65;3.10;;;;;;;11.13;30.22;97812.34;5069879;28;20071;-65
2022/05/01 04:35:50;;;;;;;7.25;3.00;;;;;;;11.05;30.57;97805.38;5070812;28;20044;-68
2022/05/01 04:38:41;;;;;;;12.25;3.67;;;;;;;11.06;30.38;97800.75;5070559;28;20503;-68
2022/05/01 04:41:53;;;;;;;5.10;2.63;;;;;;;11.20;30.49;97801.97;5070501;28;20047;-67
2022/05/01 04:44:59;;;;;;;6.20;3.13;;;;;;;11.33;30.46;97795.16;5051497;28;20040;-65
2022/05/01 04:48:04;;;;;;;7.47;3.03;;;;;;;11.68;30.14;97790.16;5068433;28;20426;-68
2022/05/01 04:51:10;;;;;;;11.88;3.15;;;;;;;11.89;29.94;97786.38;5070192;28;20047;-68
2022/05/01 04:54:15;;;;;;;8.13;3.70;;;;;;;11.98;29.84;97789.47;5071351;28;20040;-69
2022/05/01 05:00:46;;;;;;;4.03;2.50;;;;;;;12.64;29.09;97778.91;5066452;28;20102;-66
2022/05/01 05:03:52;;;;;;;3.70;2.45;;;;;;;13.18;28.49;97781.13;5070850;28;20049;-63
2022/05/01 05:06:37;;;;;;;;;;;;;;;13.46;28.33;97781.66;5070094;28;20471;-65
2022/05/01 05:09:54;;;;;;;2.58;2.38;;;;;;;13.51;28.38;97775.31;5049190;28;20393;-65
2022/05/01 05:13:00;;;;;;;3.30;2.83;;;;;;;13.28;28.98;97764.56;5071848;28;20048;-65
2022/05/01 05:15:47;;;;;;;;;;;;;;;12.88;29.37;97768.19;5071722;28;20036;-65
2022/05/01 05:18:14;;;;;;;1.67;1.58;;;;;;;12.51;29.77;97772.81;5060471;28;20386;-67
2022/05/01 05:20:39;;;;;;;4.55;3.05;;;;;;;12.30;30.05;97769.22;5071416;28;20071;-64
2022/05/01 05:23:05;;;;;;;4.03;3.20;;;;;;;12.13;30.46;97769.47;5071637;28;20475;-65
2022/05/01 05:25:31;;;;;;;5.50;2.15;;;;;;;12.16;30.18;97776.31;5071650;28;20550;-65
2022/05/01 05:27:57;;;;;;;3.03;2.13;;;;;;;12.18;30.15;97772.22;5069182;28;20040;-66
2022/05/01 05:30:22;;;;;;;5.13;2.38;;;;;;;12.26;30.15;97759.84;5071436;28;20048;-64
2022/05/01 05:32:49;;;;;;;3.38;2.35;;;;;;;12.33;30.11;97760.41;5069521;28;20885;-67
2022/05/01 05:35:15;;;;;;;1.77;1.48;;;;;;;12.38;29.85;97765.09;5070967;28;20039;-65
2022/05/01 05:37:41;;;;;;;2.47;2.08;;;;;;;12.41;29.98;97759.03;5070755;28;20074;-66
2022/05/01 05:40:07;;;;;;;3.63;2.35;;;;;;;12.41;29.93;97750.78;5071293;28;20068;-66
2022/05/01 05:42:33;;;;;;;4.07;1.95;;;;;;;12.40;29.89;97757.41;5066445;28;20044;-65
2022/05/01 05:45:00;;;;;;;4.75;2.35;;;;;;;12.26;30.22;97748.84;5071511;28;20053;-63
2022/05/01 05:47:25;;;;;;;4.78;2.08;;;;;;;12.06;30.32;97753.19;5070588;28;20415;-63
2022/05/01 05:49:51;;;;;;;1.40;1.30;;;;;;;12.09;30.19;97751.84;5071116;28;20044;-64
2022/05/01 05:52:17;;;;;;;3.17;1.77;;;;;;;12.36;29.65;97753.53;5071303;28;20051;-63
2022/05/01 05:54:43;;;;;;;2.05;1.63;;;;;;;12.41;29.58;97739.78;5071044;28;20049;-63
2022/05/01 05:57:09;;;;;;;2.17;1.02;;;;;;;12.50;29.78;97740.91;5070841;28;20454;-63
2022/05/01 05:59:36;;;;;;;1.30;1.20;;;;;;;12.60;29.44;97738.16;5067698;28;20060;-64
2022/05/01 06:02:03;;;;;;;3.25;2.00;;;;;;;12.70;29.45;97739.25;5071556;28;20056;-64
2022/05/01 06:04:29;;;;;;;6.25;1.38;;;;;;;12.89;29.08;97732.09;5052837;28;20426;-66
2022/05/01 06:06:54;;;;;;;3.05;1.83;;;;;;;13.06;29.16;97748.34;5070242;28;20048;-64
2022/05/01 06:09:20;;;;;;;2.40;1.38;;;;;;;13.26;28.61;97736.44;5070252;28;20040;-63
2022/05/01 06:11:46;;;;;;;2.60;1.42;;;;;;;13.45;28.48;97731.19;5069524;28;20071;-63
2022/05/01 06:14:11;;;;;;;1.40;1.27;;;;;;;13.46;28.81;97723.75;5070662;28;20060;-64
2022/05/01 06:16:38;;;;;;;2.35;1.55;;;;;;;13.42;28.80;97722.66;5070785;28;20055;-64
2022/05/01 06:19:04;;;;;;;1.33;1.13;;;;;;;13.40;28.87;97724.88;5072766;28;20052;-61
2022/05/01 06:21:30;;;;;;;2.58;1.88;;;;;;;13.53;28.73;97726.22;5075212;28;20135;-62
2022/05/01 06:23:55;;;;;;;1.35;1.25;;;;;;;13.66;28.39;97731.97;5074752;28;20518;-67
2022/05/01 06:26:21;;;;;;;1.55;1.45;;;;;;;13.83;28.21;97722.50;5075550;28;20048;-64
2022/05/01 06:28:47;;;;;;;1.83;0.93;;;;;;;13.86;28.47;97732.97;5068218;28;20048;-64
2022/05/01 06:31:15;;;;;;;1.98;0.75;;;;;;;13.90;28.16;97723.03;5064016;28;20075;-61
2022/05/01 06:33:43;;;;;;;2.30;1.15;;;;;;;13.83;28.31;97720.56;5073138;28;20032;-62
2022/05/01 06:36:09;;;;;;;9.00;3.08;;;;;;;13.69;28.77;97714.00;5073813;28;20045;-62
2022/05/01 06:38:35;;;;;;;7.22;1.20;;;;;;;13.59;28.66;97719.56;5073963;28;20798;-63
2022/05/01 06:41:04;;;;;;;3.92;0.88;;;;;;;13.48;29.07;97707.75;5073336;28;20465;-66
2022/05/01 06:43:31;;;;;;;2.85;1.15;;;;;;;13.41;29.02;97715.50;5071297;28;20036;-65
2022/05/01 06:45:57;;;;;;;3.75;1.38;;;;;;;13.26;29.20;97717.16;5073767;28;20036;-64
2022/05/01 06:48:22;;;;;;;3.50;0.82;;;;;;;13.09;29.26;97722.16;5072956;28;20040;-63
2022/05/01 06:50:48;;;;;;;10.23;1.48;;;;;;;12.95;29.24;97714.44;5072819;28;20431;-65
2022/05/01 06:53:14;;;;;;;3.03;1.38;;;;;;;12.70;29.71;97708.97;5070648;28;20032;-62
2022/05/01 06:55:40;;;;;;;2.13;0.68;;;;;;;12.43;29.93;97707.31;5073569;28;20460;-65
2022/05/01 06:58:05;;;;;;;1.20;1.00;;;;;;;12.27;30.07;97703.72;5072592;28;20044;-63
2022/05/01 07:00:31;;;;;;;2.10;0.98;;;;;;;12.12;30.17;97699.00;5072768;28;20506;-63
2022/05/01 07:02:58;;;;;;;1.10;0.88;;;;;;;12.06;30.10;97687.16;5070142;28;20044;-63
2022/05/01 07:05:23;;;;;;;2.58;0.68;;;;;;;12.14;30.09;97690.47;5071486;28;20483;-63
2022/05/01 07:07:50;;;;;;;3.03;0.75;;;;;;;12.08;29.99;97678.63;5044988;28;20041;-62
2022/05/01 07:10:17;;;;;;;2.45;1.25;;;;;;;12.08;30.03;97673.94;5071107;28;20070;-65
2022/05/01 07:12:43;;;;;;;2.05;1.23;;;;;;;12.07;29.86;97671.47;5042882;28;20052;-65
2022/05/01 07:15:09;;;;;;;1.70;1.10;;;;;;;11.96;29.75;97669.81;5069339;28;20155;-67
2022/05/01 07:17:35;;;;;;;1.60;0.85;;;;;;;11.97;29.86;97663.19;5072585;28;20045;-64
2022/05/01 07:20:02;;;;;;;2.00;1.48;;;;;;;12.03;29.46;97662.94;5072433;28;20525;-63
2022/05/01 07:22:31;;;;;;;1.63;0.75;;;;;;;12.02;29.66;97661.28;5070259;28;20052;-64
2022/05/01 07:24:57;;;;;;;0.85;0.85;;;;;;;12.03;29.26;97659.38;5071014;28;20036;-66
2022/05/01 07:27:23;;;;;;;0.85;0.77;;;;;;;12.08;29.44;97651.94;5072955;28;20044;-64
2022/05/01 07:29:48;;;;;;;0.60;0.60;;;;;;;12.12;29.31;97657.75;5071990;28;20511;-65
2022/05/01 07:32:15;;;;;;;0.85;0.82;;;;;;;12.23;29.24;97653.91;5072113;28;20423;-64
2022/05/01 07:35:00;;;;;;;0.98;0.95;;;;;;;12.39;28.85;97656.66;5071886;28;20621;-66
2022/05/01 07:37:26;;;;;;;1.08;0.73;;;;;;;12.65;28.80;97659.38;5072637;28;20183;-65
2022/05/01 07:39:54;;;;;;;1.88;0.93;;;;;;;13.07;28.31;97656.31;5070099;28;20086;-65
2022/05/01 07:42:20;;;;;;;0.50;0.50;;;;;;;13.39;27.91;97657.06;5052891;28;20041;-65
2022/05/01 07:44:46;;;;;;;0.90;0.77;;;;;;;13.61;27.65;97645.66;5069372;28;20041;-63
2022/05/01 07:47:12;;;;;;;2.60;1.17;;;;;;;13.65;27.88;97655.03;5068164;28;20063;-63
2022/05/01 07:49:38;;;;;;;0.70;0.70;;;;;;;13.70;27.60;97643.94;5059065;28;20032;-63
2022/05/01 07:52:04;;;;;;;1.75;1.65;;;;;;;13.81;27.58;97636.47;5048089;28;20072;-64
2022/05/01 07:54:30;;;;;;;0.40;0.40;;;;;;;13.94;27.53;97635.81;5055421;28;20060;-63
2022/05/01 07:56:55;;;;;;;0.60;0.60;;;;;;;13.99;27.61;97632.19;5052503;28;20041;-64
2022/05/01 07:59:21;;;;;;;0.60;0.60;;;;;;;13.95;27.78;97629.16;5052109;28;20056;-64
2022/05/01 08:01:47;;;;;;;0.68;0.68;;;;;;;13.90;27.81;97622.84;5051172;28;20136;-63
2022/05/01 08:04:28;;;;;;;0.32;0.32;;;;;;;13.87;27.94;97621.50;5071835;28;20511;-63
2022/05/01 08:06:55;;;;;;;3.55;0.90;;;;;;;13.96;28.01;97619.78;5066361;28;20071;-62
2022/05/01 08:09:20;;;;;;;0.70;0.70;;;;;;;14.14;27.67;97621.03;5055613;28;20032;-64
2022/05/01 08:11:46;;;;;;;0.75;0.52;;;;;;;14.42;27.21;97615.03;5064115;28;20043;-64
2022/05/01 08:14:12;;;;;;;0.82;0.82;;;;;;;14.57;27.37;97616.84;5072761;28;20044;-64
2022/05/01 08:16:42;;;;;;;0.50;0.50;;;;;;;14.64;27.30;97611.84;5064846;28;20072;-64
2022/05/01 08:21:52;;;;;;;0.77;0.77;;;;;;;14.76;27.12;97608.69;5056188;28;20549;-65
2022/05/01 08:24:19;;;;;;;3.83;0.82;;;;;;;14.97;26.88;97599.06;5053293;28;20131;-64
2022/05/01 08:26:48;;;;;;;0.75;0.73;;;;;;;15.24;26.77;97608.72;5058647;28;20048;-63
2022/05/01 08:29:15;;;;;;;4.60;1.00;;;;;;;15.47;26.50;97603.44;5061221;28;20500;-66
2022/05/01 08:31:45;;;;;;;1.77;1.00;;;;;;;15.62;26.54;97602.41;5056197;28;20155;-61
2022/05/01 08:34:11;;;;;;;0.35;0.35;;;;;;;15.65;26.65;97601.81;5066144;28;20037;-62
2022/05/01 08:36:38;;;;;;;0.20;0.20;;;;;;;15.65;26.64;97602.66;5069458;28;20047;-65
2022/05/01 08:39:05;;;;;;;0.63;0.32;;;;;;;15.71;26.61;97593.16;5071232;28;20054;-66
2022/05/01 08:41:31;;;;;;;1.13;0.50;;;;;;;15.88;26.48;97591.84;5062585;28;20033;-67
2022/05/01 08:43:59;;;;;;;0.20;0.20;;;;;;;15.99;26.16;97590.56;5072263;28;20071;-65
2022/05/01 08:46:37;;;;;;;0.40;0.40;;;;;;;16.10;26.25;97583.72;5072577;28;20099;-67
2022/05/01 08:49:04;;;;;;;0.73;0.73;;;;;;;16.11;26.25;97581.78;5071982;28;20055;-67
2022/05/01 08:51:38;;;;;;;0.77;0.77;;;;;;;16.10;26.37;97577.38;5072397;28;20082;-66
2022/05/01 08:54:12;;;;;;;0.55;0.28;;;;;;;16.04;26.44;97587.69;5072590;28;20064;-65
2022/05/01 08:56:41;;;;;;;0.63;0.63;;;;;;;15.99;26.39;97575.88;5072213;28;20442;-67
2022/05/01 08:59:09;;;;;;;0.77;0.30;;;;;;;15.91;26.60;97577.38;5071931;28;20048;-66
2022/05/01 09:02:15;;;;;;;1.45;1.10;;;;;;;15.76;26.57;97572.88;5069444;28;20122;-63
2022/05/01 09:08:42;;;;;;;0.65;0.65;;;;;;;15.61;26.42;97575.88;5068615;28;20109;-64
2022/05/01 09:15:12;;;;;;;0.47;0.45;;;;;;;15.99;26.27;97559.28;5071853;28;20043;-65
2022/05/01 09:25:08;;;;;;;0.20;0.20;;;;;;;15.93;25.98;97558.56;5064197;28;20406;-65
2022/05/01 09:28:14;;;;;;;0.20;0.20;;;;;;;15.99;25.86;97554.56;5064064;28;20093;-64
2022/05/01 09:34:43;;;;;;;0.43;0.43;;;;;;;15.57;26.34;97545.19;5063740;28;20060;-68
2022/05/01 09:37:19;;;;;;;0.10;0.10;;;;;;;15.25;26.41;97555.03;5059877;28;20055;-65
2022/05/01 09:39:49;;;;;;;0.45;0.45;;;;;;;15.03;26.67;97556.41;5063936;28;20112;-64
2022/05/01 09:42:19;;;;;;;0.63;0.50;;;;;;;15.08;26.21;97550.00;5064654;28;20061;-68
2022/05/01 09:45:17;;;;;;;0.50;0.43;;;;;;;15.15;26.28;97544.09;5062870;28;20041;-65
2022/05/01 09:47:45;;;;;;;0.30;0.30;;;;;;;14.99;26.27;97537.97;5071038;28;20040;-66
2022/05/01 09:50:13;;;;;;;0.20;0.20;;;;;;;14.86;26.36;97540.28;5070881;28;20145;-69
2022/05/01 09:52:59;;;;;;;0.47;0.47;;;;;;;14.86;26.11;97536.72;5070316;28;20097;-66
2022/05/01 09:55:26;;;;;;;0.30;0.30;;;;;;;14.77;26.45;97527.44;5074443;28;20186;-70
2022/05/01 09:58:06;;;;;;;0.50;0.50;;;;;;;14.73;26.35;97532.72;5074358;28;20475;-63
2022/05/01 10:00:44;;;;;;;1.45;0.52;;;;;;;14.82;25.91;97530.13;5072067;28;20051;-65
2022/05/01 10:03:23;;;;;;;3.50;1.27;;;;;;;14.89;25.75;97534.19;5072956;28;20052;-64
2022/05/01 10:05:50;;;;;;;0.22;0.22;;;;;;;14.94;25.64;97538.81;5068746;28;20617;-64
2022/05/01 10:08:20;;;;;;;0.30;0.30;;;;;;;15.03;25.61;97539.00;5070763;28;20102;-63
2022/05/01 10:10:47;;;;;;;0.30;0.30;;;;;;;15.13;25.47;97516.75;5073517;28;20052;-64
2022/05/01 10:13:14;;;;;;;0.20;0.20;;;;;;;15.12;25.75;97537.25;5073000;28;20036;-63
2022/05/01 10:15:40;;;;;;;0.20;0.20;;;;;;;15.13;25.62;97527.00;5073715;28;20087;-63
2022/05/01 10:18:07;;;;;;;0.10;0.10;;;;;;;15.09;25.62;97523.16;5073703;28;20045;-63
2022/05/01 10:20:34;;;;;;;0.38;0.38;;;;;;;15.03;25.49;97517.72;5056600;28;20053;-64
2022/05/01 10:23:03;;;;;;;0.10;0.10;;;;;;;14.94;25.82;97516.72;5074381;28;20040;-63
2022/05/01 10:25:33;;;;;;;25.30;0.77;;;;;;;14.78;25.70;97523.53;5065458;28;20053;-63
2022/05/01 10:28:22;;;;;;;0.20;0.20;;;;;;;14.42;26.15;97521.97;5059683;28;20055;-64
2022/05/01 10:34:32;;;;;;;1.95;0.50;;;;;;;13.54;26.76;97521.84;5063763;28;20076;-62
2022/05/01 10:37:16;;;;;;;0.30;0.30;;;;;;;13.45;26.93;97513.34;5066956;28;20068;-63
2022/05/01 10:39:43;;;;;;;0.65;0.55;;;;;;;13.44;26.63;97519.16;5071827;28;20185;-62
2022/05/01 10:42:09;;;;;;;0.13;0.13;;;;;;;13.43;26.81;97526.63;5064769;28;20052;-63
2022/05/01 10:44:37;;;;;;;0.63;0.63;;;;;;;13.42;26.65;97518.63;5050810;28;20048;-63
2022/05/01 10:47:16;;;;;;;0.20;0.20;;;;;;;13.33;26.55;97515.63;5067418;28;20047;-64
2022/05/01 10:49:46;;;;;;;0.47;0.40;;;;;;;13.32;26.41;97512.03;5065478;28;20047;-64
2022/05/01 10:52:23;;;;;;;0.30;0.30;;;;;;;13.40;26.12;97518.91;5073468;28;20079;-64
2022/05/01 10:54:50;;;;;;;0.30;0.30;;;;;;;13.50;26.12;97507.00;5053326;28;20052;-62
2022/05/01 10:57:17;;;;;;;0.47;0.43;;;;;;;13.72;25.97;97505.72;5053290;28;20036;-63
2022/05/01 10:59:47;;;;;;;0.70;0.57;;;;;;;13.94;25.80;97502.53;5052807;28;20520;-63
2022/05/01 11:02:22;;;;;;;1.65;0.63;;;;;;;14.18;25.42;97508.13;5051844;28;20045;-61
2022/05/01 11:04:49;;;;;;;0.40;0.40;;;;;;;14.33;25.11;97505.19;5054057;28;20049;-62
2022/05/01 11:07:18;;;;;;;0.25;0.25;;;;;;;14.33;25.27;97507.16;5056555;28;20049;-62
2022/05/01 11:09:46;;;;;;;0.98;0.35;;;;;;;14.31;25.22;97510.19;5053087;28;20527;-61
2022/05/01 11:12:15;;;;;;;0.85;0.85;;;;;;;14.36;25.35;97499.09;5053139;28;20835;-61
2022/05/01 11:14:51;;;;;;;0.20;0.20;;;;;;;14.46;25.02;97502.88;5035005;28;20044;-61
2022/05/01 11:17:52;;;;;;;3.30;0.57;;;;;;;14.47;25.02;97477.72;5052593;28;20029;-62
2022/05/01 11:20:21;;;;;;;8.15;1.17;;;;;;;14.44;25.27;97494.06;5038781;28;20047;-65
2022/05/01 11:22:47;;;;;;;0.50;0.50;;;;;;;14.38;25.21;97501.56;5054961;28;20048;-62
2022/05/01 11:25:38;;;;;;;0.20;0.20;;;;;;;14.27;25.22;97498.09;5053066;28;20050;-63
2022/05/01 11:28:05;;;;;;;0.15;0.15;;;;;;;14.10;25.41;97494.94;5052947;28;20136;-63
2022/05/01 11:30:31;;;;;;;0.22;0.22;;;;;;;13.92;25.46;97504.75;5052464;28;20564;-62
2022/05/01 11:33:01;;;;;;;1.75;1.65;;;;;;;13.68;25.92;97505.50;5052247;28;20037;-64
2022/05/01 11:35:54;;;;;;;2.25;0.73;;;;;;;13.51;26.06;97502.31;5052980;28;20123;-62
2022/05/01 11:38:43;;;;;;;0.30;0.20;;;;;;;13.27;26.18;97501.03;5072559;28;20039;-67
2022/05/01 11:41:10;;;;;;;0.20;0.20;;;;;;;13.07;26.21;97518.53;5050174;28;20045;-63
2022/05/01 11:43:36;;;;;;;0.70;0.70;;;;;;;12.98;26.38;97525.72;5072666;28;20164;-63
2022/05/01 11:46:04;;;;;;;0.10;0.10;;;;;;;12.96;26.28;97509.47;5065919;28;20132;-62
2022/05/01 11:48:31;;;;;;;0.35;0.35;;;;;;;13.06;25.90;97513.25;5051516;28;20157;-65
2022/05/01 11:51:00;;;;;;;0.10;0.10;;;;;;;13.20;25.85;97507.97;5051718;28;20392;-64
2022/05/01 11:53:31;;;;;;;1.00;1.00;;;;;;;13.38;25.91;97512.84;5051694;28;20055;-64
2022/05/01 12:04:36;;;;;;;0.20;0.20;;;;;;;13.21;25.78;97507.69;5072103;28;20459;-61
2022/05/01 12:07:08;;;;;;;0.20;0.20;;;;;;;13.06;26.15;97510.50;5071423;28;20123;-64
2022/05/01 12:09:38;;;;;;;0.40;0.40;;;;;;;12.93;26.15;97515.53;5072720;28;20040;-62
2022/05/01 12:12:10;;;;;;;0.30;0.30;;;;;;;12.82;26.17;97511.16;5069283;28;20041;-62
2022/05/01 12:14:37;;;;;;;0.60;0.60;;;;;;;12.72;26.38;97512.03;5072138;28;20037;-62
2022/05/01 12:17:13;;;;;;;0.95;0.52;;;;;;;12.60;26.28;97517.88;5071742;28;20040;-63
2022/05/01 12:19:40;;;;;;;0.40;0.40;;;;;;;12.47;26.39;97515.69;5071858;28;20465;-62
2022/05/01 12:22:11;;;;;;;0.52;0.52;;;;;;;12.33;26.26;97509.94;5071920;28;20063;-63
2022/05/01 12:24:37;;;;;;;0.73;0.22;;;;;;;12.31;26.50;97511.31;5072154;28;20052;-63
2022/05/01 12:27:03;;;;;;;0.45;0.45;;;;;;;12.40;26.35;97504.16;5068993;28;20048;-64
2022/05/01 12:29:30;;;;;;;0.38;0.38;;;;;;;12.53;26.20;97505.47;5071469;28;20045;-65
2022/05/01 12:32:13;;;;;;;0.77;0.77;;;;;;;12.60;26.04;97509.59;5071666;28;20039;-62
2022/05/01 12:34:46;;;;;;;0.22;0.22;;;;;;;12.60;26.55;97504.09;5071151;28;20446;-61
2022/05/01 12:37:17;;;;;;;0.40;0.40;;;;;;;12.81;26.28;97506.78;5071685;28;20044;-64
2022/05/01 12:39:44;;;;;;;0.30;0.30;;;;;;;12.82;26.12;97519.44;5066046;28;20052;-64
2022/05/01 12:45:21;;;;;;;0.20;0.20;;;;;;;12.41;26.40;97525.06;5056440;28;20135;-63
2022/05/01 12:47:48;;;;;;;0.20;0.20;;;;;;;12.19;26.82;97528.13;5071766;28;20043;-62
2022/05/01 12:50:20;;;;;;;0.25;0.25;;;;;;;12.03;26.91;97516.31;5071722;28;20094;-68
